Time;durP1;ratioP1;P1;durP2;ratioP2;P2;SDS_P1;SDS_P2;PMS_P1;PMS_P2;Temp;Humidity;BMP_temperature;BMP_pressure;BME280_temperature;BME280_humidity;BME280_pressure;Samples;Min_cycle;Max_cycle;Signal;HPM_P1;HPM_P2
2022/06/09 00:00:05;168479.00;0.56;291.65;0.00;0.00;0.62;;;;;20.30;1.00;;;;;;2272864;61;1041;-88
2022/06/09 00:02:33;196162.00;0.65;339.32;0.00;0.00;0.62;;;;;20.30;1.00;;;;;;2272855;61;1004;-88
2022/06/09 00:05:00;483447.00;1.61;833.33;19992.00;0.07;35.26;;;;;20.20;1.00;;;;;;2272731;61;1505;-88
2022/06/09 00:07:27;487101.00;1.62;839.62;79350.00;0.26;137.91;;;;;20.30;1.00;;;;;;2272839;61;1202;-89
2022/06/09 00:10:01;881660.00;2.94;1523.93;84466.00;0.28;146.75;;;;;20.30;1.00;;;;;;2272846;61;1931;-88
2022/06/09 00:12:30;877478.00;2.92;1516.60;68058.00;0.23;118.40;;;;;20.40;1.00;;;;;;2272476;61;1418;-88
2022/06/09 00:14:57;245203.00;0.82;423.70;10491.00;0.03;18.80;;;;;20.60;1.00;;;;;;2272786;61;1789;-89
2022/06/09 00:17:25;281275.00;0.94;485.73;0.00;0.00;0.62;;;;;20.40;1.00;;;;;;2272803;61;1459;-88
2022/06/09 00:19:52;241629.00;0.81;417.55;58243.00;0.19;101.44;;;;;19.60;1.00;;;;;;2272791;61;934;-89
2022/06/09 00:22:20;407330.00;1.36;702.41;0.00;0.00;0.62;;;;;19.30;1.00;;;;;;2272388;61;1010;-88
2022/06/09 00:42:18;1564343.00;5.21;2764.79;110426.00;0.37;191.57;;;;;20.20;1.00;;;;;;2282382;61;1360;-90
2022/06/09 00:44:45;1105230.00;3.68;1919.78;110132.00;0.37;191.06;;;;;20.30;1.00;;;;;;2310676;55;3744;-87
2022/06/09 00:49:48;884067.00;2.95;1528.15;74102.00;0.25;128.85;;;;;20.40;1.00;;;;;;2283016;61;1901;-90
2022/06/09 00:54:49;512368.00;1.71;883.12;0.00;0.00;0.62;;;;;20.40;1.00;;;;;;2282504;61;1367;-90
2022/06/09 00:57:22;184324.00;0.61;318.94;0.00;0.00;0.62;;;;;20.40;1.00;;;;;;2289413;39;3658;-89
2022/06/09 00:59:54;261459.00;0.87;451.66;0.00;0.00;0.62;;;;;20.40;1.00;;;;;;2280568;61;1679;-88
2022/06/09 01:02:22;619751.00;2.07;1068.34;115747.00;0.39;200.75;;;;;20.40;1.00;;;;;;2276692;61;1764;-88
2022/06/09 01:04:52;153114.00;0.51;265.17;0.00;0.00;0.62;;;;;20.60;1.00;;;;;;2276553;61;1093;-89
2022/06/09 01:07:23;94847.00;0.32;164.68;0.00;0.00;0.62;;;;;20.60;1.00;;;;;;2276709;61;1346;-89
2022/06/09 01:09:50;77657.00;0.26;134.99;0.00;0.00;0.62;;;;;20.30;1.00;;;;;;2276712;61;2023;-88
2022/06/09 01:12:28;101777.00;0.34;176.64;0.00;0.00;0.62;;;;;20.00;1.00;;;;;;2276753;61;1725;-89
2022/06/09 01:30:06;710305.00;2.37;1225.11;70355.00;0.23;122.37;;;;;20.00;1.00;;;;;;2290127;60;1961;-89
2022/06/09 01:32:38;46557.00;0.16;81.23;0.00;0.00;0.62;;;;;19.80;1.00;;;;;;2288503;60;1175;-88
2022/06/09 01:35:13;74272.00;0.25;129.14;0.00;0.00;0.62;;;;;19.30;1.00;;;;;;2288492;60;1340;-88
2022/06/09 01:37:45;94630.00;0.32;164.30;0.00;0.00;0.62;;;;;19.40;1.00;;;;;;2288509;60;1617;-86
2022/06/09 01:40:14;32852.00;0.11;57.52;0.00;0.00;0.62;;;;;19.30;1.00;;;;;;2288708;60;952;-90
2022/06/09 01:42:44;70095.00;0.23;121.92;0.00;0.00;0.62;;;;;19.60;1.00;;;;;;2288616;60;1037;-88
2022/06/09 01:45:16;142656.00;0.48;247.15;0.00;0.00;0.62;;;;;19.40;1.00;;;;;;2288464;60;1431;-88
2022/06/09 01:47:51;171183.00;0.57;296.30;58592.00;0.20;102.04;;;;;19.00;2.10;;;;;;2288644;60;1009;-89
2022/06/09 01:50:26;97110.00;0.32;168.58;0.00;0.00;0.62;;;;;18.80;3.30;;;;;;2288642;60;1915;-90
2022/06/09 01:52:55;15385.00;0.05;27.28;0.00;0.00;0.62;;;;;19.00;2.50;;;;;;2288662;60;1718;-89
2022/06/09 01:55:26;0.00;0.00;0.62;0.00;0.00;0.62;;;;;19.20;1.60;;;;;;2288642;60;1298;-89
2022/06/09 01:57:58;32773.00;0.11;57.38;0.00;0.00;0.62;;;;;19.10;1.80;;;;;;2288699;60;1023;-88
2022/06/09 02:00:27;7347.00;0.02;13.35;0.00;0.00;0.62;;;;;19.10;2.00;;;;;;2288604;60;1573;-88
2022/06/09 02:03:02;244514.00;0.82;422.52;21013.00;0.07;37.02;;;;;18.90;2.70;;;;;;2288644;60;1720;-87
2022/06/09 02:05:33;89798.00;0.30;155.96;0.00;0.00;0.62;;;;;18.80;3.30;;;;;;2288447;60;1380;-87
2022/06/09 02:08:05;0.00;0.00;0.62;0.00;0.00;0.62;;;;;18.90;2.80;;;;;;2288661;60;1105;-86
2022/06/09 02:10:35;82145.00;0.27;142.74;0.00;0.00;0.62;;;;;19.10;2.00;;;;;;2288613;60;1982;-90
2022/06/09 02:13:05;0.00;0.00;0.62;0.00;0.00;0.62;;;;;19.10;1.90;;;;;;2288521;60;1037;-87
2022/06/09 02:15:36;2869.00;0.01;5.59;0.00;0.00;0.62;;;;;19.40;1.00;;;;;;2288589;60;1730;-88
2022/06/09 02:18:09;0.00;0.00;0.62;0.00;0.00;0.62;;;;;19.10;1.10;;;;;;2288558;60;1057;-88
2022/06/09 02:20:41;197510.00;0.66;341.64;0.00;0.00;0.62;;;;;18.90;2.10;;;;;;2288593;60;1547;-86
2022/06/09 02:23:09;166676.00;0.56;288.54;77575.00;0.26;134.85;;;;;18.90;2.10;;;;;;2288623;60;1631;-88
2022/06/09 02:25:37;67783.00;0.23;117.93;0.00;0.00;0.62;;;;;18.60;3.60;;;;;;2288598;60;1319;-88
2022/06/09 02:28:05;0.00;0.00;0.62;0.00;0.00;0.62;;;;;18.70;3.60;;;;;;2288487;60;1045;-87
2022/06/09 02:30:31;73547.00;0.25;127.89;0.00;0.00;0.62;;;;;18.90;1.80;;;;;;2288546;60;2009;-87
2022/06/09 02:32:59;0.00;0.00;0.62;0.00;0.00;0.62;;;;;18.90;2.10;;;;;;2288638;60;1009;-88
2022/06/09 02:35:28;111068.00;0.37;192.67;0.00;0.00;0.62;;;;;18.90;2.40;;;;;;2288521;60;1392;-88
2022/06/09 02:37:55;54737.00;0.18;95.38;0.00;0.00;0.62;;;;;19.10;2.30;;;;;;2288534;60;1421;-87
2022/06/09 02:40:22;0.00;0.00;0.62;0.00;0.00;0.62;;;;;19.00;2.20;;;;;;2288587;60;1077;-88
2022/06/09 02:42:49;117119.00;0.39;203.11;0.00;0.00;0.62;;;;;18.80;2.10;;;;;;2288519;60;1050;-89
2022/06/09 02:45:17;251278.00;0.84;434.15;67713.00;0.23;117.81;;;;;18.60;3.50;;;;;;2288577;60;1278;-88
2022/06/09 02:47:44;30194.00;0.10;52.92;0.00;0.00;0.62;;;;;18.40;4.10;;;;;;2289279;60;1730;-88
2022/06/09 02:50:12;15774.00;0.05;27.95;0.00;0.00;0.62;;;;;18.40;4.50;;;;;;2289226;60;1915;-88
2022/06/09 02:52:41;37474.00;0.12;65.52;0.00;0.00;0.62;;;;;18.50;3.70;;;;;;2289301;60;1028;-88
2022/06/09 02:55:10;141694.00;0.47;245.49;0.00;0.00;0.62;;;;;18.40;3.90;;;;;;2289174;60;1721;-87
2022/06/09 02:57:37;0.00;0.00;0.62;0.00;0.00;0.62;;;;;18.40;3.90;;;;;;2289213;60;1580;-86
2022/06/09 03:00:07;76251.00;0.25;132.56;0.00;0.00;0.62;;;;;18.20;4.00;;;;;;2289214;60;1086;-88
2022/06/09 03:02:34;28505.00;0.10;50.00;0.00;0.00;0.62;;;;;18.00;4.70;;;;;;2289084;60;1153;-87
2022/06/09 03:05:02;13963.00;0.05;24.81;0.00;0.00;0.62;;;;;18.10;4.80;;;;;;2289098;60;2163;-87
2022/06/09 03:07:29;139263.00;0.46;241.30;0.00;0.00;0.62;;;;;18.40;3.70;;;;;;2289172;60;1088;-86
2022/06/09 03:09:57;0.00;0.00;0.62;0.00;0.00;0.62;;;;;18.30;2.90;;;;;;2289096;60;1996;-88
2022/06/09 03:12:24;98608.00;0.33;171.17;0.00;0.00;0.62;;;;;18.20;3.20;;;;;;2289173;60;1116;-86
2022/06/09 03:14:51;25236.00;0.08;44.34;0.00;0.00;0.62;;;;;18.20;3.50;;;;;;2289121;60;1026;-88
2022/06/09 03:17:18;56429.00;0.19;98.30;0.00;0.00;0.62;;;;;18.10;3.70;;;;;;2288975;60;1347;-87
2022/06/09 03:19:45;0.00;0.00;0.62;0.00;0.00;0.62;;;;;18.10;4.60;;;;;;2289043;60;1512;-87
2022/06/09 03:22:13;0.00;0.00;0.62;0.00;0.00;0.62;;;;;18.20;3.10;;;;;;2289128;60;1455;-87
2022/06/09 03:24:40;0.00;0.00;0.62;0.00;0.00;0.62;;;;;18.20;4.40;;;;;;2289092;60;1288;-87
2022/06/09 03:27:09;177178.00;0.59;306.63;0.00;0.00;0.62;;;;;18.10;3.40;;;;;;2289106;60;1498;-88
2022/06/09 03:29:36;51871.00;0.17;90.42;0.00;0.00;0.62;;;;;18.10;2.60;;;;;;2289021;60;1993;-89
2022/06/09 03:32:03;183834.00;0.61;318.09;0.00;0.00;0.62;;;;;18.10;2.50;;;;;;2289104;60;1018;-87
2022/06/09 03:34:30;271636.00;0.91;469.16;0.00;0.00;0.62;;;;;18.10;3.00;;;;;;2289084;60;1180;-88
2022/06/09 03:36:57;1616741.00;5.39;2864.78;69871.00;0.23;121.54;;;;;18.40;1.90;;;;;;2288995;60;1333;-88
2022/06/09 03:39:24;1439235.00;4.80;2529.29;98466.00;0.33;170.92;;;;;18.40;1.60;;;;;;2288943;60;972;-88
2022/06/09 03:41:51;1715940.00;5.72;3056.44;208721.00;0.70;360.93;;;;;17.90;3.70;;;;;;2289024;60;1090;-89
2022/06/09 03:44:20;118226840.00;394.09;66939892.00;165994.00;0.55;287.37;;;;;17.90;3.30;;;;;;2288964;60;1755;-89
2022/06/09 03:46:47;118993144.00;396.64;68251168.00;88792.00;0.30;154.22;;;;;18.20;1.90;;;;;;2288890;60;1337;-89
2022/06/09 03:49:14;238787.00;0.80;412.66;79992.00;0.27;139.02;;;;;18.00;2.60;;;;;;2288963;60;1603;-88
2022/06/09 03:51:41;235053.00;0.78;406.24;81507.00;0.27;141.64;;;;;17.70;3.30;;;;;;2288984;60;990;-87
2022/06/09 03:54:08;125622.00;0.42;217.78;0.00;0.00;0.62;;;;;17.80;4.30;;;;;;2288852;60;1135;-87
2022/06/09 03:56:35;72730.00;0.24;126.48;0.00;0.00;0.62;;;;;17.80;4.30;;;;;;2288926;60;1361;-88
2022/06/09 03:59:02;118626.00;0.40;205.71;0.00;0.00;0.62;;;;;18.00;2.80;;;;;;2288899;60;1008;-87
2022/06/09 04:01:31;144893.00;0.48;251.01;0.00;0.00;0.62;;;;;18.20;1.70;;;;;;2288897;60;1092;-88
2022/06/09 04:03:58;155086.00;0.52;268.57;0.00;0.00;0.62;;;;;18.40;1.60;;;;;;2288966;60;1200;-89
2022/06/09 04:06:27;0.00;0.00;0.62;0.00;0.00;0.62;;;;;18.40;1.00;;;;;;2288903;60;1408;-88
2022/06/09 04:08:54;7310.00;0.02;13.29;0.00;0.00;0.62;;;;;18.50;1.00;;;;;;2288924;60;1100;-88
2022/06/09 04:11:23;0.00;0.00;0.62;0.00;0.00;0.62;;;;;18.60;1.00;;;;;;2288840;60;2008;-87
2022/06/09 04:13:51;0.00;0.00;0.62;0.00;0.00;0.62;;;;;18.40;1.20;;;;;;2288808;60;1746;-87
2022/06/09 04:16:23;39546.00;0.13;69.10;0.00;0.00;0.62;;;;;18.20;1.20;;;;;;2288869;60;1400;-88
2022/06/09 04:18:53;0.00;0.00;0.62;0.00;0.00;0.62;;;;;18.20;1.70;;;;;;2288806;60;942;-87
2022/06/09 04:21:20;60383.00;0.20;105.14;0.00;0.00;0.62;;;;;18.20;2.30;;;;;;2288884;60;1028;-87
2022/06/09 04:23:47;0.00;0.00;0.62;0.00;0.00;0.62;;;;;18.10;1.70;;;;;;2288830;60;1714;-89
2022/06/09 04:26:17;35450.00;0.12;62.02;0.00;0.00;0.62;;;;;18.20;1.10;;;;;;2288869;60;1303;-89
2022/06/09 04:28:44;544142.00;1.81;937.86;30986.00;0.10;54.29;;;;;18.10;2.00;;;;;;2288772;60;997;-87
2022/06/09 04:31:11;1209160.00;4.03;2106.79;126490.00;0.42;219.28;;;;;18.20;2.10;;;;;;2288687;60;1915;-87
2022/06/09 04:33:39;1262016.00;4.21;2202.76;130858.00;0.44;226.81;;;;;18.40;1.70;;;;;;2288794;60;1046;-87
2022/06/09 04:36:09;1382222.00;4.61;2423.39;154641.00;0.52;267.81;;;;;18.10;1.90;;;;;;2288748;60;1660;-88
2022/06/09 04:38:36;1695454.00;5.65;3016.59;103787.00;0.35;180.11;;;;;18.10;1.40;;;;;;2288772;60;1613;-88
2022/06/09 04:41:04;1358167.00;4.53;2378.96;154149.00;0.51;266.96;;;;;18.20;1.10;;;;;;2288785;60;955;-88
2022/06/09 04:43:31;1887703.00;6.29;3396.23;195704.00;0.65;338.53;;;;;18.30;1.00;;;;;;2288738;60;1019;-89
2022/06/09 04:45:58;1461206.00;4.87;2570.33;261686.00;0.87;452.05;;;;;18.60;1.00;;;;;;2288639;60;1634;-87
2022/06/09 04:48:25;662364.00;2.21;1142.03;72719.00;0.24;126.46;;;;;18.80;1.00;;;;;;2288733;60;1109;-87
2022/06/09 04:50:52;117336264.00;391.12;65437196.00;76526.00;0.26;133.04;;;;;18.90;1.00;;;;;;2288733;60;1992;-87
2022/06/09 04:53:20;250314.00;0.83;432.49;47721.00;0.16;83.24;;;;;18.80;1.00;;;;;;2288709;60;1016;-89
2022/06/09 04:55:47;241376.00;0.80;417.12;78891.00;0.26;137.12;;;;;18.50;1.00;;;;;;2288713;60;1378;-88
2022/06/09 04:58:14;72798.00;0.24;126.60;0.00;0.00;0.62;;;;;18.20;1.00;;;;;;2288699;60;1193;-88
2022/06/09 05:00:41;0.00;0.00;0.62;0.00;0.00;0.62;;;;;18.40;1.00;;;;;;2288755;60;921;-87
2022/06/09 05:03:11;0.00;0.00;0.62;0.00;0.00;0.62;;;;;18.80;1.00;;;;;;2288692;60;1007;-86
2022/06/09 05:05:40;0.00;0.00;0.62;0.00;0.00;0.62;;;;;19.00;1.00;;;;;;2288554;60;1477;-88
2022/06/09 05:08:07;0.00;0.00;0.62;0.00;0.00;0.62;;;;;19.20;1.00;;;;;;2288607;60;1029;-88
2022/06/09 05:10:35;10074.00;0.03;18.08;0.00;0.00;0.62;;;;;19.10;1.00;;;;;;2288532;60;1927;-88
2022/06/09 05:13:05;54041.00;0.18;94.17;0.00;0.00;0.62;;;;;18.90;1.00;;;;;;2288679;60;1113;-88
2022/06/09 05:15:34;113861.00;0.38;197.49;0.00;0.00;0.62;;;;;18.70;1.00;;;;;;2288652;60;2171;-89
2022/06/09 05:18:01;0.00;0.00;0.62;0.00;0.00;0.62;;;;;18.70;1.00;;;;;;2288703;60;1580;-87
2022/06/09 05:20:29;0.00;0.00;0.62;0.00;0.00;0.62;;;;;18.60;1.00;;;;;;2288527;60;1041;-87
2022/06/09 05:22:56;0.00;0.00;0.62;0.00;0.00;0.62;;;;;18.90;1.00;;;;;;2288689;60;1603;-87
2022/06/09 05:25:23;40469.00;0.13;70.70;0.00;0.00;0.62;;;;;19.30;1.00;;;;;;2288636;60;1298;-86
2022/06/09 05:27:51;0.00;0.00;0.62;0.00;0.00;0.62;;;;;19.40;1.00;;;;;;2288526;60;1617;-86
2022/06/09 05:30:21;64729.00;0.22;112.65;0.00;0.00;0.62;;;;;19.60;1.00;;;;;;2288523;60;2008;-87
2022/06/09 05:32:49;281010.00;0.94;485.27;12633.00;0.04;22.51;;;;;19.60;1.00;;;;;;2288667;60;1111;-88
2022/06/09 05:35:17;0.00;0.00;0.62;0.00;0.00;0.62;;;;;19.70;1.00;;;;;;2288568;60;1406;-88
2022/06/09 05:46:00;363286.00;1.21;626.70;73072.00;0.24;127.07;;;;;19.80;1.00;;;;;;2288665;60;1433;-88
2022/06/09 05:48:28;0.00;0.00;0.62;0.00;0.00;0.62;;;;;19.40;1.00;;;;;;2288455;60;1050;-87
2022/06/09 05:50:56;84207.00;0.28;146.30;0.00;0.00;0.62;;;;;19.40;1.00;;;;;;2288511;60;1994;-87
2022/06/09 05:53:23;0.00;0.00;0.62;0.00;0.00;0.62;;;;;19.40;1.00;;;;;;2288561;60;1014;-87
2022/06/09 05:55:50;251791.00;0.84;435.03;0.00;0.00;0.62;;;;;19.80;1.00;;;;;;2288471;60;1298;-88
2022/06/09 05:58:19;88778.00;0.30;154.20;0.00;0.00;0.62;;;;;20.30;1.00;;;;;;2288198;60;1023;-87
2022/06/09 06:00:46;57322.00;0.19;99.85;0.00;0.00;0.62;;;;;21.10;1.00;;;;;;2288496;60;1070;-88
2022/06/09 06:03:14;196787.00;0.66;340.39;0.00;0.00;0.62;;;;;22.20;1.00;;;;;;2288415;60;1016;-87
2022/06/09 06:08:26;322398.00;1.07;556.42;65446.00;0.22;113.89;;;;;22.70;1.00;;;;;;2288492;60;658;-89
2022/06/09 06:10:53;170938.00;0.57;295.88;73682.00;0.25;128.12;;;;;22.80;1.00;;;;;;2288406;60;2005;-86
2022/06/09 06:13:21;186719.00;0.62;323.06;0.00;0.00;0.62;;;;;22.90;1.00;;;;;;2288011;60;2508;-89
2022/06/09 06:15:49;282839.00;0.94;488.42;30182.00;0.10;52.90;;;;;23.40;1.00;;;;;;2288353;60;1623;-87
2022/06/09 06:18:16;76199.00;0.25;132.47;0.00;0.00;0.62;;;;;23.80;1.00;;;;;;2288429;60;1528;-88
2022/06/09 06:20:44;140858.00;0.47;244.05;0.00;0.00;0.62;;;;;23.60;1.00;;;;;;2288474;60;1420;-88
2022/06/09 06:23:11;6684.00;0.02;12.20;0.00;0.00;0.62;;;;;23.10;1.00;;;;;;2289077;60;939;-88
2022/06/09 06:25:38;249765.00;0.83;431.55;0.00;0.00;0.62;;;;;22.70;1.00;;;;;;2289036;60;1600;-88
2022/06/09 06:28:05;107642.00;0.36;186.76;0.00;0.00;0.62;;;;;22.40;1.00;;;;;;2289043;60;898;-88
2022/06/09 06:30:34;259472.00;0.86;448.24;0.00;0.00;0.62;;;;;22.70;1.00;;;;;;2288976;60;1927;-87
2022/06/09 06:33:01;129273.00;0.43;224.08;0.00;0.00;0.62;;;;;22.60;1.00;;;;;;2289016;60;1749;-88
2022/06/09 06:35:28;325117.00;1.08;561.09;0.00;0.00;0.62;;;;;22.10;1.00;;;;;;2289095;60;1446;-88
2022/06/09 06:37:55;337477.00;1.12;582.34;0.00;0.00;0.62;;;;;22.00;1.00;;;;;;2289139;60;1054;-90
2022/06/09 06:40:23;202900.00;0.68;350.92;0.00;0.00;0.62;;;;;22.30;1.00;;;;;;2289108;60;1562;-87
2022/06/09 06:42:50;164284.00;0.55;284.42;0.00;0.00;0.62;;;;;21.60;1.00;;;;;;2289031;60;1722;-88
2022/06/09 06:45:17;62889.00;0.21;109.47;0.00;0.00;0.62;;;;;22.00;1.00;;;;;;2288974;60;1737;-87
2022/06/09 06:47:45;115821.00;0.39;200.87;0.00;0.00;0.62;;;;;22.10;1.00;;;;;;2289017;60;1553;-87
2022/06/09 06:50:14;241878.00;0.81;417.98;0.00;0.00;0.62;;;;;22.20;1.00;;;;;;2288994;60;1925;-88
2022/06/09 06:52:42;309953.00;1.03;535.03;0.00;0.00;0.62;;;;;22.60;1.00;;;;;;2289124;60;1005;-88
2022/06/09 06:55:14;206346.00;0.69;356.85;0.00;0.00;0.62;;;;;22.70;1.00;;;;;;2289015;60;1265;-88
2022/06/09 06:57:41;128432.00;0.43;222.63;0.00;0.00;0.62;;;;;23.20;1.00;;;;;;2289068;60;1031;-87
2022/06/09 07:00:10;163786.00;0.55;283.56;0.00;0.00;0.62;;;;;23.70;1.00;;;;;;2288936;60;1594;-87
2022/06/09 07:02:37;393007.00;1.31;677.78;0.00;0.00;0.62;;;;;24.50;1.00;;;;;;2288995;60;1028;-87
2022/06/09 07:05:08;174954.00;0.58;302.80;0.00;0.00;0.62;;;;;26.00;1.00;;;;;;2289004;60;1757;-88
2022/06/09 07:07:35;149181.00;0.50;258.40;0.00;0.00;0.62;;;;;26.90;1.00;;;;;;2289124;60;1124;-86
2022/06/09 07:10:03;193515.00;0.65;334.76;0.00;0.00;0.62;;;;;26.50;1.00;;;;;;2289030;60;1615;-88
2022/06/09 07:12:30;72899.00;0.24;126.77;0.00;0.00;0.62;;;;;27.50;1.00;;;;;;2288916;60;1936;-87
2022/06/09 07:14:57;271446.00;0.90;468.83;0.00;0.00;0.62;;;;;27.70;1.00;;;;;;2289207;60;1567;-89
2022/06/09 07:17:25;209413.00;0.70;362.13;0.00;0.00;0.62;;;;;27.00;1.00;;;;;;2289283;60;909;-88
2022/06/09 07:19:52;138593.00;0.46;240.15;0.00;0.00;0.62;;;;;26.60;1.00;;;;;;2289159;60;990;-87
2022/06/09 07:22:21;155689.00;0.52;269.61;0.00;0.00;0.62;;;;;25.50;1.00;;;;;;2289227;60;1090;-87
2022/06/09 07:24:48;135575.00;0.45;234.94;0.00;0.00;0.62;;;;;25.00;1.00;;;;;;2289014;60;1618;-87
2022/06/09 07:27:15;348300.00;1.16;600.94;0.00;0.00;0.62;;;;;25.60;1.00;;;;;;2289108;60;1305;-86
2022/06/09 07:29:43;385687.00;1.29;665.20;3857.00;0.01;7.30;;;;;26.70;1.00;;;;;;2289095;60;1044;-86
2022/06/09 07:32:10;192160.00;0.64;332.43;0.00;0.00;0.62;;;;;27.20;1.00;;;;;;2289104;60;1907;-87
2022/06/09 07:34:37;287679.00;0.96;496.74;36262.00;0.12;63.42;;;;;26.70;1.00;;;;;;2289252;60;1020;-85
2022/06/09 07:37:05;162003.00;0.54;280.49;0.00;0.00;0.62;;;;;26.00;1.00;;;;;;2288930;60;1405;-88
2022/06/09 07:39:33;160913.00;0.54;278.61;0.00;0.00;0.62;;;;;25.60;1.00;;;;;;2289055;60;1737;-86
2022/06/09 07:42:00;216056.00;0.72;373.56;0.00;0.00;0.62;;;;;25.50;1.00;;;;;;2288959;60;1056;-87
2022/06/09 07:44:28;188049.00;0.63;325.35;0.00;0.00;0.62;;;;;25.10;1.00;;;;;;2289032;60;934;-87
2022/06/09 07:46:55;294192.00;0.98;507.94;0.00;0.00;0.62;;;;;25.70;1.00;;;;;;2288964;60;1550;-87
2022/06/09 07:49:22;100089.00;0.33;173.73;0.00;0.00;0.62;;;;;27.20;1.00;;;;;;2289043;60;926;-88
2022/06/09 07:51:49;296254.00;0.99;511.48;27692.00;0.09;48.59;;;;;27.70;1.00;;;;;;2289027;60;2002;-88
2022/06/09 07:54:16;273973.00;0.91;473.18;0.00;0.00;0.62;;;;;27.70;1.00;;;;;;2288964;60;1139;-86
2022/06/09 07:56:45;191684.00;0.64;331.61;27122.00;0.09;47.60;;;;;27.90;1.00;;;;;;2289064;60;1283;-87
2022/06/09 07:59:13;312519.00;1.04;539.44;0.00;0.00;0.62;;;;;28.30;1.00;;;;;;2288984;60;1726;-88
2022/06/09 08:01:40;210100.00;0.70;363.31;0.00;0.00;0.62;;;;;28.90;1.00;;;;;;2289122;60;1620;-89
2022/06/09 08:04:07;246499.00;0.82;425.93;0.00;0.00;0.62;;;;;28.70;1.00;;;;;;2289116;60;970;-89
2022/06/09 08:06:36;296063.00;0.99;511.15;55601.00;0.19;96.87;;;;;28.90;1.00;;;;;;2289157;60;1436;-89
2022/06/09 08:09:04;58674.00;0.20;102.18;0.00;0.00;0.62;;;;;29.40;1.00;;;;;;2289178;60;1014;-89
2022/06/09 08:11:37;265365.00;0.88;458.37;55889.00;0.19;97.37;;;;;29.40;1.00;;;;;;2288963;60;1929;-89
2022/06/09 08:14:08;117803.00;0.39;204.29;0.00;0.00;0.62;;;;;29.20;1.00;;;;;;2289138;60;1158;-88
2022/06/09 08:16:35;153261.00;0.51;265.43;0.00;0.00;0.62;;;;;29.70;1.00;;;;;;2289060;60;1306;-90
2022/06/09 08:19:03;102086.00;0.34;177.17;0.00;0.00;0.62;;;;;30.00;1.00;;;;;;2289045;60;1019;-88
2022/06/09 08:21:30;1004891.00;3.35;1741.14;98423.00;0.33;170.85;;;;;30.40;1.00;;;;;;2288971;60;1768;-89
2022/06/09 08:23:57;822201.00;2.74;1419.87;61771.00;0.21;107.54;;;;;30.40;1.00;;;;;;2289009;60;1605;-89
2022/06/09 08:26:25;1177897.00;3.93;2050.31;45265.00;0.15;79.00;;;;;29.30;1.00;;;;;;2288971;60;1281;-89
2022/06/09 08:28:53;1778586.00;5.93;3179.16;117790.00;0.39;204.27;;;;;29.30;1.00;;;;;;2291228;39;3551;-89
2022/06/09 08:31:21;1117015.00;3.72;1940.88;72618.00;0.24;126.28;;;;;29.50;1.00;;;;;;2288766;60;2208;-89
2022/06/09 08:33:48;832208.00;2.77;1437.35;104926.00;0.35;182.07;;;;;28.70;1.00;;;;;;2288930;60;1028;-87
2022/06/09 08:36:15;1170842.00;3.90;2037.59;186780.00;0.62;323.16;;;;;28.00;1.00;;;;;;2288950;60;1314;-87
2022/06/09 08:38:43;717303.00;2.39;1237.26;63145.00;0.21;109.91;;;;;28.70;1.00;;;;;;2288954;60;1071;-89
2022/06/09 08:41:27;871800.00;2.91;1506.64;60361.00;0.20;105.10;;;;;29.70;1.00;;;;;;2288797;60;1540;-89
2022/06/09 08:44:07;1225340.00;4.08;2136.10;69984.00;0.23;121.73;;;;;28.40;1.00;;;;;;2288630;60;1187;-88
2022/06/09 08:46:45;1057359.00;3.52;1834.33;42124.00;0.14;73.56;;;;;28.30;1.00;;;;;;2288765;60;1426;-87
2022/06/09 08:49:29;1352145.00;4.51;2367.86;117209.00;0.39;203.27;;;;;28.80;1.00;;;;;;2288663;60;1034;-87
2022/06/09 08:52:02;1579831.00;5.27;2794.26;78288.00;0.26;136.08;;;;;29.00;1.00;;;;;;2294822;56;3773;-87
2022/06/09 08:54:33;705415.00;2.35;1216.63;30587.00;0.10;53.60;;;;;30.30;1.00;;;;;;2284677;60;904;-89
2022/06/09 08:57:10;817488.00;2.72;1411.64;29089.00;0.10;51.01;;;;;30.60;1.00;;;;;;2317978;56;3806;-87
2022/06/09 08:59:38;541703.00;1.81;933.66;7636.00;0.03;13.85;;;;;30.30;1.00;;;;;;2288667;60;1018;-86
2022/06/09 09:02:21;835460.00;2.78;1443.04;63442.00;0.21;110.43;;;;;29.10;1.00;;;;;;2288559;60;1046;-86
2022/06/09 09:04:55;802121.00;2.67;1384.82;84230.00;0.28;146.34;;;;;28.20;1.00;;;;;;2288727;60;904;-85
2022/06/09 09:07:27;990761.00;3.30;1716.12;129439.00;0.43;224.36;;;;;27.90;1.00;;;;;;2288777;60;1464;-86
2022/06/09 09:09:58;779454.00;2.60;1345.31;21211.00;0.07;37.37;;;;;28.10;1.00;;;;;;2288678;60;1505;-85
2022/06/09 09:12:36;1131963.00;3.77;1967.68;74704.00;0.25;129.89;;;;;27.60;1.00;;;;;;2288764;60;1917;-89
2022/06/09 09:15:16;976449.00;3.25;1690.80;55401.00;0.18;96.53;;;;;28.40;1.00;;;;;;2288715;60;1430;-87
2022/06/09 09:17:51;1256353.00;4.19;2192.45;68218.00;0.23;118.68;;;;;28.80;1.00;;;;;;2288733;60;979;-89
2022/06/09 09:20:26;319497.00;1.06;551.43;66010.00;0.22;114.87;;;;;28.20;1.00;;;;;;2288666;60;966;-87
2022/06/09 09:23:08;238585.00;0.80;412.32;65245.00;0.22;113.54;;;;;28.10;1.00;;;;;;2288597;60;1261;-87
2022/06/09 09:25:44;7869.00;0.03;14.26;0.00;0.00;0.62;;;;;27.10;1.00;;;;;;2288649;60;1369;-87
2022/06/09 09:28:18;196796.00;0.66;340.41;0.00;0.00;0.62;;;;;26.60;1.00;;;;;;2288578;60;1083;-87
2022/06/09 09:30:56;206140.00;0.69;356.49;0.00;0.00;0.62;;;;;26.20;1.00;;;;;;2288727;60;934;-86
2022/06/09 09:33:24;95157.00;0.32;165.21;0.00;0.00;0.62;;;;;26.40;1.00;;;;;;2288424;60;2020;-87
2022/06/09 09:35:57;218840.00;0.73;378.35;0.00;0.00;0.62;;;;;25.80;1.00;;;;;;2284404;60;1366;-88
2022/06/09 09:38:32;361616.00;1.21;623.83;64859.00;0.22;112.88;;;;;25.90;1.00;;;;;;2284659;60;1271;-86
2022/06/09 09:41:01;113659.00;0.38;197.14;0.00;0.00;0.62;;;;;26.30;1.00;;;;;;2284514;60;965;-87
2022/06/09 09:43:37;138152.00;0.46;239.39;0.00;0.00;0.62;;;;;26.20;1.00;;;;;;2284388;60;926;-88
2022/06/09 09:46:05;30906.00;0.10;54.15;0.00;0.00;0.62;;;;;26.10;1.00;;;;;;2284396;60;1461;-87
2022/06/09 09:48:41;107978.00;0.36;187.34;0.00;0.00;0.62;;;;;25.80;1.00;;;;;;2284461;60;922;-88
2022/06/09 09:51:13;148136.00;0.49;256.59;0.00;0.00;0.62;;;;;25.60;1.00;;;;;;2290114;55;3791;-85
2022/06/09 09:53:53;33318.00;0.11;58.33;0.00;0.00;0.62;;;;;25.20;1.00;;;;;;2292651;60;1281;-86
2022/06/09 09:56:33;334538.00;1.12;577.29;0.00;0.00;0.62;;;;;25.30;1.00;;;;;;2292484;60;1624;-86
2022/06/09 09:59:03;530185.00;1.77;913.81;0.00;0.00;0.62;;;;;25.20;1.00;;;;;;2294619;40;3645;-85
2022/06/09 10:08:35;119971.00;0.40;208.03;0.00;0.00;0.62;;;;;24.90;1.00;;;;;;2284475;60;981;-89
2022/06/09 10:10:16;154219.00;0.51;267.08;0.00;0.00;0.62;;;;;25.30;1.00;;;;;;2284512;60;1294;-87
2022/06/09 10:12:45;448605.00;1.50;773.38;0.00;0.00;0.62;;;;;25.80;1.00;;;;;;2284401;60;2014;-86
2022/06/09 10:15:18;67816.00;0.23;117.99;0.00;0.00;0.62;;;;;26.10;1.00;;;;;;2284446;60;1356;-87
2022/06/09 10:17:57;171422.00;0.57;296.72;0.00;0.00;0.62;;;;;26.30;1.00;;;;;;2284375;60;929;-88
2022/06/09 10:20:33;26273.00;0.09;46.13;0.00;0.00;0.62;;;;;26.60;1.00;;;;;;2284438;60;2174;-88
2022/06/09 10:23:19;380508.00;1.27;656.30;31246.00;0.10;54.74;;;;;26.30;1.00;;;;;;2284319;60;1098;-87
2022/06/09 10:25:56;270834.00;0.90;467.78;0.00;0.00;0.62;;;;;25.90;1.00;;;;;;2284316;60;1311;-86
2022/06/09 10:31:02;692323.00;2.31;1193.93;0.00;0.00;0.62;;;;;24.90;1.00;;;;;;2289758;60;1409;-87
2022/06/09 10:33:35;195469.00;0.65;338.12;0.00;0.00;0.62;;;;;24.40;1.00;;;;;;2288455;60;1993;-86
2022/06/09 10:36:15;108963.00;0.36;189.04;0.00;0.00;0.62;;;;;24.90;1.00;;;;;;2288411;60;1461;-86
2022/06/09 10:38:47;49357.00;0.16;86.07;0.00;0.00;0.62;;;;;25.30;1.00;;;;;;2288544;60;1090;-88
2022/06/09 10:41:17;80703.00;0.27;140.25;0.00;0.00;0.62;;;;;25.40;1.00;;;;;;2288462;60;2316;-88
2022/06/09 10:43:51;100848.00;0.34;175.04;0.00;0.00;0.62;;;;;25.70;1.00;;;;;;2288543;60;1110;-87
2022/06/09 10:46:29;135151.00;0.45;234.21;0.00;0.00;0.62;;;;;25.90;1.00;;;;;;2288374;60;1445;-87
2022/06/09 10:57:42;192922.00;0.64;333.74;23619.00;0.08;41.54;;;;;25.50;1.00;;;;;;2288585;60;694;-86
2022/06/09 11:00:14;203941.00;0.68;352.71;101066.00;0.34;175.41;;;;;25.20;1.00;;;;;;2288515;60;1293;-86
2022/06/09 11:02:47;32071.00;0.11;56.17;0.00;0.00;0.62;;;;;25.80;1.00;;;;;;2288383;60;1127;-87
2022/06/09 11:05:16;10873.00;0.04;19.46;0.00;0.00;0.62;;;;;26.00;1.00;;;;;;2288299;60;1372;-87
2022/06/09 11:08:00;187027.00;0.62;323.59;0.00;0.00;0.62;;;;;25.90;1.00;;;;;;2288858;60;900;-87
2022/06/09 11:10:44;237821.00;0.79;411.00;0.00;0.00;0.62;;;;;26.20;1.00;;;;;;2289023;60;1197;-86